PWSweather.com
Personal Weather Stations
Station Observations
UWIDEPER1
Brown County, Depere, WI 54115

Brown CountyDepere, WI 54115

Lat: 44.44, Lon: -88.05

Elevation: 610

Station Type: Acurite 5in1

www.depereweather.com

High Low Average
Temperature 46.8°F8.2°C 40.3°F4.6°C 44.3°F6.8°C
Dew Point 45.2°F7.3°C 38.4°F3.6°C 42.5°F5.8°C
Winds 10.4 mph 16.7 kmh Calm Calm 4.0 mph S6.4 kmh S
Wind Gusts 17.3 mph27.8 kmh -- 5.0 mph8.0 kmh
Humidity 96% 86% 93%
Pressure 30.08 in1018.6 mb 29.74 in1007.1 mb -
Precipitation 1.06 in26.9 mm - -
Hour Temp Dew Point Humidity Winds Wind Gusts Pressure Precip Precip Rate Daily Precip Total
12:00 AM 42.1°F5.6°C 37.9°F3.3°C 85% 5.8 mph NE9.3 kmh NE 8.1 mph13.0 kmh 29.98 in1015.2 mb - 0.00 in0.0 mm 0.00 in0.0 mm
12:10 AM 42.1°F5.6°C 37.6°F3.1°C 84% 6.9 mph NNE11.1 kmh NNE 11.5 mph18.5 kmh 29.97 in1014.9 mb - 0.00 in0.0 mm 0.00 in0.0 mm
12:15 AM 42.3°F5.7°C 37.5°F3.1°C 83% 6.9 mph NNE11.1 kmh NNE 9.2 mph14.8 kmh 29.98 in1015.2 mb - 0.00 in0.0 mm 0.00 in0.0 mm
12:20 AM 42.4°F5.8°C 37.6°F3.1°C 83% 6.9 mph NE11.1 kmh NE 9.2 mph14.8 kmh 30.00 in1015.9 mb - 0.00 in0.0 mm 0.00 in0.0 mm
12:25 AM 42.4°F5.8°C 37.9°F3.3°C 84% 8.1 mph N13.0 kmh N 6.9 mph11.1 kmh 29.99 in1015.6 mb - 0.00 in0.0 mm 0.00 in0.0 mm
12:30 AM 42.1°F5.6°C 38.8°F3.8°C 88% 8.1 mph NNE13.0 kmh NNE 12.7 mph20.4 kmh 29.99 in1015.6 mb - 0.00 in0.0 mm 0.00 in0.0 mm
12:35 AM 41.4°F5.2°C 38.9°F3.8°C 91% 9.2 mph NW14.8 kmh NW 9.2 mph14.8 kmh 29.97 in1014.9 mb - 0.03 in0.8 mm 0.03 in0.8 mm
12:40 AM 40.8°F4.9°C 38.4°F3.6°C 91% 9.2 mph N14.8 kmh N 9.2 mph14.8 kmh 30.00 in1015.9 mb - 0.02 in0.5 mm 0.04 in1.0 mm
12:45 AM 40.6°F4.8°C 38.2°F3.4°C 91% 9.2 mph NW14.8 kmh NW 10.4 mph16.7 kmh 30.02 in1016.6 mb - 0.04 in1.0 mm 0.07 in1.8 mm
12:50 AM 40.6°F4.8°C 38.2°F3.4°C 91% 8.1 mph NE13.0 kmh NE 9.2 mph14.8 kmh 30.04 in1017.3 mb - 0.02 in0.5 mm 0.09 in2.3 mm
12:55 AM 40.5°F4.7°C 38.6°F3.7°C 93% 6.9 mph NNE11.1 kmh NNE 6.9 mph11.1 kmh 29.98 in1015.2 mb - 0.03 in0.8 mm 0.11 in2.8 mm
01:00 AM 40.5°F4.7°C 38.6°F3.7°C 93% 8.1 mph N13.0 kmh N 10.4 mph16.7 kmh 30.00 in1015.9 mb - 0.04 in1.0 mm 0.15 in3.8 mm
01:10 AM 40.3°F4.6°C 38.4°F3.6°C 93% 9.2 mph WNW14.8 kmh WNW 11.5 mph18.5 kmh 29.96 in1014.6 mb - 0.10 in2.5 mm 0.24 in6.1 mm
01:15 AM 40.3°F4.6°C 38.4°F3.6°C 93% 9.2 mph NW14.8 kmh NW 13.8 mph22.2 kmh 29.99 in1015.6 mb - 0.02 in0.5 mm 0.25 in6.4 mm
01:20 AM 40.3°F4.6°C 38.4°F3.6°C 93% 9.2 mph N14.8 kmh N 15.0 mph24.1 kmh 30.02 in1016.6 mb - 0.03 in0.8 mm 0.28 in7.1 mm
01:25 AM 40.5°F4.7°C 38.6°F3.7°C 93% 9.2 mph NE14.8 kmh NE 9.2 mph14.8 kmh 29.99 in1015.6 mb - 0.04 in1.0 mm 0.32 in8.1 mm
01:30 AM 40.5°F4.7°C 38.6°F3.7°C 93% 9.2 mph N14.8 kmh N 17.3 mph27.8 kmh 30.00 in1015.9 mb - 0.06 in1.5 mm 0.36 in9.1 mm
01:35 AM 40.5°F4.7°C 38.6°F3.7°C 93% 9.2 mph NNE14.8 kmh NNE 11.5 mph18.5 kmh 30.02 in1016.6 mb - 0.03 in0.8 mm 0.39 in9.9 mm
01:40 AM 40.5°F4.7°C 38.6°F3.7°C 93% 8.1 mph N13.0 kmh N 8.1 mph13.0 kmh 30.04 in1017.3 mb - 0.07 in1.8 mm 0.45 in11.4 mm
01:45 AM 40.6°F4.8°C 38.8°F3.8°C 93% 6.9 mph NW11.1 kmh NW 10.4 mph16.7 kmh 30.07 in1018.3 mb - 0.06 in1.5 mm 0.50 in12.7 mm
01:50 AM 40.8°F4.9°C 39.5°F4.2°C 95% 5.8 mph NW9.3 kmh NW 8.1 mph13.0 kmh 30.07 in1018.3 mb - 0.05 in1.3 mm 0.53 in13.5 mm
01:55 AM 40.8°F4.9°C 39.5°F4.2°C 95% 5.8 mph NNW9.3 kmh NNW 6.9 mph11.1 kmh 30.07 in1018.3 mb - 0.05 in1.3 mm 0.57 in14.5 mm
02:00 AM 40.8°F4.9°C 39.5°F4.2°C 95% 4.6 mph ENE7.4 kmh ENE 6.9 mph11.1 kmh 30.06 in1017.9 mb - 0.04 in1.0 mm 0.60 in15.2 mm
02:10 AM 41.2°F5.1°C 39.9°F4.4°C 95% 2.3 mph S3.7 kmh S 3.5 mph5.6 kmh 30.08 in1018.6 mb - 0.05 in1.3 mm 0.64 in16.3 mm
02:15 AM 41.3°F5.2°C 40.0°F4.4°C 95% 3.5 mph NNE5.6 kmh NNE 4.6 mph7.4 kmh 30.07 in1018.3 mb - 0.03 in0.8 mm 0.67 in17.0 mm
02:20 AM 41.4°F5.2°C 40.0°F4.4°C 95% 3.5 mph NE5.6 kmh NE 4.6 mph7.4 kmh 30.04 in1017.3 mb - 0.03 in0.8 mm 0.69 in17.5 mm
02:25 AM 41.4°F5.2°C 40.0°F4.4°C 95% 4.6 mph ENE7.4 kmh ENE 4.6 mph7.4 kmh 30.02 in1016.6 mb - 0.04 in1.0 mm 0.73 in18.5 mm
02:30 AM 41.2°F5.1°C 39.9°F4.4°C 95% 5.8 mph ENE9.3 kmh ENE 6.9 mph11.1 kmh 30.00 in1015.9 mb - 0.03 in0.8 mm 0.75 in19.1 mm
02:35 AM 41.2°F5.1°C 39.8°F4.3°C 95% 3.5 mph NE5.6 kmh NE 3.5 mph5.6 kmh 29.99 in1015.6 mb - 0.05 in1.3 mm 0.79 in20.1 mm
02:40 AM 40.8°F4.9°C 39.5°F4.2°C 95% 3.5 mph ENE5.6 kmh ENE 3.5 mph5.6 kmh 29.97 in1014.9 mb - 0.04 in1.0 mm 0.82 in20.8 mm
02:45 AM 40.6°F4.8°C 39.3°F4.1°C 95% 4.6 mph ENE7.4 kmh ENE 3.5 mph5.6 kmh 29.96 in1014.6 mb - 0.03 in0.8 mm 0.84 in21.3 mm
02:50 AM 40.5°F4.7°C 39.1°F3.9°C 95% 6.9 mph ENE11.1 kmh ENE 11.5 mph18.5 kmh 29.89 in1012.2 mb - 0.02 in0.5 mm 0.86 in21.8 mm
02:55 AM 40.5°F4.7°C 39.1°F3.9°C 95% 8.1 mph E13.0 kmh E 9.2 mph14.8 kmh 29.86 in1011.2 mb - 0.01 in0.3 mm 0.87 in22.1 mm
03:00 AM 40.5°F4.7°C 39.1°F3.9°C 95% 5.8 mph ENE9.3 kmh ENE 8.1 mph13.0 kmh 29.87 in1011.5 mb - 0.01 in0.3 mm 0.87 in22.1 mm
03:10 AM 40.6°F4.8°C 39.6°F4.2°C 96% 4.6 mph NNE7.4 kmh NNE 5.8 mph9.3 kmh 29.88 in1011.9 mb - 0.00 in0.0 mm 0.87 in22.1 mm
03:15 AM 40.7°F4.8°C 39.6°F4.2°C 96% 4.6 mph 7.4 kmh 6.9 mph11.1 kmh 29.88 in1011.9 mb - 0.00 in0.0 mm 0.87 in22.1 mm
03:20 AM 40.8°F4.9°C 39.8°F4.3°C 96% 4.6 mph NE7.4 kmh NE 5.8 mph9.3 kmh 29.90 in1012.5 mb - 0.00 in0.0 mm 0.87 in22.1 mm
03:25 AM 41.2°F5.1°C 40.1°F4.5°C 96% 4.6 mph NNE7.4 kmh NNE 8.1 mph13.0 kmh 29.91 in1012.9 mb - 0.00 in0.0 mm 0.87 in22.1 mm
03:30 AM 41.4°F5.2°C 40.3°F4.6°C 96% 3.5 mph NE5.6 kmh NE 4.6 mph7.4 kmh 29.91 in1012.9 mb - 0.00 in0.0 mm 0.87 in22.1 mm
03:35 AM 41.4°F5.2°C 40.3°F4.6°C 96% 3.5 mph E5.6 kmh E 3.5 mph5.6 kmh 29.90 in1012.5 mb - 0.00 in0.0 mm 0.87 in22.1 mm
03:40 AM 41.5°F5.3°C 40.5°F4.7°C 96% 3.5 mph E5.6 kmh E 3.5 mph5.6 kmh 29.90 in1012.5 mb - 0.00 in0.0 mm 0.87 in22.1 mm
03:45 AM 41.5°F5.3°C 40.5°F4.7°C 96% 2.3 mph ENE3.7 kmh ENE 3.5 mph5.6 kmh 29.90 in1012.5 mb - 0.00 in0.0 mm 0.87 in22.1 mm
03:50 AM 41.7°F5.4°C 40.7°F4.8°C 96% 3.5 mph NE5.6 kmh NE 3.5 mph5.6 kmh 29.89 in1012.2 mb - 0.00 in0.0 mm 0.87 in22.1 mm
03:55 AM 41.8°F5.4°C 40.7°F4.8°C 96% 3.5 mph NE5.6 kmh NE 4.6 mph7.4 kmh 29.90 in1012.5 mb - 0.00 in0.0 mm 0.87 in22.1 mm
04:00 AM 41.9°F5.5°C 40.8°F4.9°C 96% 4.6 mph E7.4 kmh E 3.5 mph5.6 kmh 29.90 in1012.5 mb - 0.00 in0.0 mm 0.87 in22.1 mm
04:10 AM 41.9°F5.5°C 40.8°F4.9°C 96% 4.6 mph NE7.4 kmh NE 4.6 mph7.4 kmh 29.88 in1011.9 mb - 0.00 in0.0 mm 0.87 in22.1 mm
04:15 AM 42.1°F5.6°C 41.0°F5.0°C 96% 4.6 mph NE7.4 kmh NE 4.6 mph7.4 kmh 29.88 in1011.9 mb - 0.00 in0.0 mm 0.87 in22.1 mm
04:20 AM 42.1°F5.6°C 41.0°F5.0°C 96% 3.5 mph NE5.6 kmh NE 6.9 mph11.1 kmh 29.88 in1011.9 mb - 0.00 in0.0 mm 0.87 in22.1 mm
04:25 AM 42.1°F5.6°C 41.0°F5.0°C 96% 4.6 mph NE7.4 kmh NE 4.6 mph7.4 kmh 29.88 in1011.9 mb - 0.00 in0.0 mm 0.87 in22.1 mm
04:30 AM 42.1°F5.6°C 40.8°F4.9°C 95% 5.8 mph NE9.3 kmh NE 6.9 mph11.1 kmh 29.88 in1011.9 mb - 0.00 in0.0 mm 0.87 in22.1 mm
04:35 AM 42.1°F5.6°C 40.8°F4.9°C 95% 4.6 mph E7.4 kmh E 3.5 mph5.6 kmh 29.87 in1011.5 mb - 0.00 in0.0 mm 0.87 in22.1 mm
04:40 AM 42.1°F5.6°C 40.8°F4.9°C 95% 4.6 mph E7.4 kmh E 5.8 mph9.3 kmh 29.86 in1011.2 mb - 0.00 in0.0 mm 0.87 in22.1 mm
04:45 AM 42.1°F5.6°C 40.8°F4.9°C 95% 4.6 mph ENE7.4 kmh ENE 6.9 mph11.1 kmh 29.87 in1011.5 mb - 0.01 in0.3 mm 0.88 in22.4 mm
04:50 AM 42.1°F5.6°C 40.8°F4.9°C 95% 4.6 mph E7.4 kmh E 4.6 mph7.4 kmh 29.87 in1011.5 mb - 0.00 in0.0 mm 0.88 in22.4 mm
04:55 AM 42.1°F5.6°C 40.8°F4.9°C 95% 4.6 mph NNE7.4 kmh NNE 3.5 mph5.6 kmh 29.87 in1011.5 mb - 0.00 in0.0 mm 0.88 in22.4 mm
05:00 AM 42.1°F5.6°C 40.8°F4.9°C 95% 4.6 mph NE7.4 kmh NE 3.5 mph5.6 kmh 29.87 in1011.5 mb - 0.00 in0.0 mm 0.88 in22.4 mm
05:10 AM 42.1°F5.6°C 40.8°F4.9°C 95% 4.6 mph NE7.4 kmh NE 5.8 mph9.3 kmh 29.86 in1011.2 mb - 0.00 in0.0 mm 0.88 in22.4 mm
05:15 AM 42.1°F5.6°C 40.8°F4.9°C 95% 4.6 mph ENE7.4 kmh ENE 6.9 mph11.1 kmh 29.85 in1010.8 mb - 0.01 in0.3 mm 0.89 in22.6 mm
05:20 AM 42.1°F5.6°C 40.8°F4.9°C 95% 3.5 mph ENE5.6 kmh ENE 4.6 mph7.4 kmh 29.85 in1010.8 mb - 0.01 in0.3 mm 0.90 in22.9 mm
05:25 AM 42.1°F5.6°C 40.8°F4.9°C 95% 3.5 mph E5.6 kmh E 4.6 mph7.4 kmh 29.86 in1011.2 mb - 0.01 in0.3 mm 0.90 in22.9 mm
05:30 AM 42.1°F5.6°C 40.8°F4.9°C 95% 3.5 mph ENE5.6 kmh ENE 8.1 mph13.0 kmh 29.87 in1011.5 mb - 0.01 in0.3 mm 0.91 in23.1 mm
05:35 AM 42.1°F5.6°C 40.8°F4.9°C 95% 4.6 mph NE7.4 kmh NE 5.8 mph9.3 kmh 29.86 in1011.2 mb - 0.02 in0.5 mm 0.92 in23.4 mm
05:40 AM 42.3°F5.7°C 40.9°F4.9°C 95% 3.5 mph ESE5.6 kmh ESE 9.2 mph14.8 kmh 29.87 in1011.5 mb - 0.02 in0.5 mm 0.93 in23.6 mm
05:45 AM 42.3°F5.7°C 40.9°F4.9°C 95% 5.8 mph E9.3 kmh E 8.1 mph13.0 kmh 29.87 in1011.5 mb - 0.03 in0.8 mm 0.96 in24.4 mm
05:50 AM 42.3°F5.7°C 40.9°F4.9°C 95% 4.6 mph NE7.4 kmh NE 6.9 mph11.1 kmh 29.86 in1011.2 mb - 0.01 in0.3 mm 0.97 in24.6 mm
05:55 AM 42.1°F5.6°C 40.8°F4.9°C 95% 5.8 mph NNE9.3 kmh NNE 4.6 mph7.4 kmh 29.86 in1011.2 mb - 0.00 in0.0 mm 0.97 in24.6 mm
06:00 AM 42.1°F5.6°C 40.8°F4.9°C 95% 5.8 mph E9.3 kmh E 5.8 mph9.3 kmh 29.86 in1011.2 mb - 0.00 in0.0 mm 0.97 in24.6 mm
06:10 AM 42.1°F5.6°C 40.8°F4.9°C 95% 5.8 mph NNE9.3 kmh NNE 3.5 mph5.6 kmh 29.86 in1011.2 mb - 0.00 in0.0 mm 0.97 in24.6 mm
06:15 AM 42.1°F5.6°C 40.8°F4.9°C 95% 3.5 mph NNE5.6 kmh NNE 5.8 mph9.3 kmh 29.88 in1011.9 mb - 0.00 in0.0 mm 0.97 in24.6 mm
06:20 AM 42.1°F5.6°C 40.8°F4.9°C 95% 3.5 mph NE5.6 kmh NE 5.8 mph9.3 kmh 29.90 in1012.5 mb - 0.00 in0.0 mm 0.97 in24.6 mm
06:25 AM 42.1°F5.6°C 40.8°F4.9°C 95% 3.5 mph ENE5.6 kmh ENE 3.5 mph5.6 kmh 29.89 in1012.2 mb - 0.01 in0.3 mm 0.98 in24.9 mm
06:30 AM 42.1°F5.6°C 40.8°F4.9°C 95% 3.5 mph E5.6 kmh E 3.5 mph5.6 kmh 29.86 in1011.2 mb - 0.02 in0.5 mm 1.00 in25.4 mm
06:35 AM 42.1°F5.6°C 40.8°F4.9°C 95% 3.5 mph NNE5.6 kmh NNE 3.5 mph5.6 kmh 29.87 in1011.5 mb - 0.01 in0.3 mm 1.01 in25.7 mm
06:40 AM 42.1°F5.6°C 40.8°F4.9°C 95% 2.3 mph NE3.7 kmh NE 3.5 mph5.6 kmh 29.88 in1011.9 mb - 0.00 in0.0 mm 1.01 in25.7 mm
06:45 AM 42.1°F5.6°C 40.8°F4.9°C 95% 3.5 mph NE5.6 kmh NE 4.6 mph7.4 kmh 29.87 in1011.5 mb - 0.00 in0.0 mm 1.01 in25.7 mm
06:50 AM 42.1°F5.6°C 40.8°F4.9°C 95% 2.3 mph NE3.7 kmh NE 2.3 mph3.7 kmh 29.86 in1011.2 mb - 0.00 in0.0 mm 1.01 in25.7 mm
06:55 AM 42.1°F5.6°C 40.8°F4.9°C 95% 2.3 mph NE3.7 kmh NE 3.5 mph5.6 kmh 29.86 in1011.2 mb - 0.00 in0.0 mm 1.01 in25.7 mm
07:00 AM 42.3°F5.7°C 40.9°F4.9°C 95% 3.5 mph E5.6 kmh E 3.5 mph5.6 kmh 29.84 in1010.5 mb - 0.00 in0.0 mm 1.01 in25.7 mm
07:10 AM 42.3°F5.7°C 40.9°F4.9°C 95% 3.5 mph E5.6 kmh E 5.8 mph9.3 kmh 29.85 in1010.8 mb - 0.00 in0.0 mm 1.01 in25.7 mm
07:15 AM 42.4°F5.8°C 41.1°F5.1°C 95% 2.3 mph ESE3.7 kmh ESE 3.5 mph5.6 kmh 29.85 in1010.8 mb - 0.00 in0.0 mm 1.01 in25.7 mm
07:20 AM 42.4°F5.8°C 41.1°F5.1°C 95% 3.5 mph NNE5.6 kmh NNE 3.5 mph5.6 kmh 29.84 in1010.5 mb - 0.00 in0.0 mm 1.01 in25.7 mm
07:25 AM 42.4°F5.8°C 41.1°F5.1°C 95% 3.5 mph N5.6 kmh N 4.6 mph7.4 kmh 29.85 in1010.8 mb - 0.00 in0.0 mm 1.01 in25.7 mm
07:30 AM 42.4°F5.8°C 41.1°F5.1°C 95% 3.5 mph ENE5.6 kmh ENE 3.5 mph5.6 kmh 29.85 in1010.8 mb - 0.00 in0.0 mm 1.01 in25.7 mm
07:35 AM 42.4°F5.8°C 41.1°F5.1°C 95% 3.5 mph ENE5.6 kmh ENE 3.5 mph5.6 kmh 29.84 in1010.5 mb - 0.00 in0.0 mm 1.01 in25.7 mm
07:40 AM 42.4°F5.8°C 41.1°F5.1°C 95% 2.3 mph E3.7 kmh E 2.3 mph3.7 kmh 29.84 in1010.5 mb - 0.00 in0.0 mm 1.01 in25.7 mm
07:45 AM 42.4°F5.8°C 41.1°F5.1°C 95% 2.3 mph E3.7 kmh E 2.3 mph3.7 kmh 29.84 in1010.5 mb - 0.00 in0.0 mm 1.01 in25.7 mm
07:50 AM 42.4°F5.8°C 41.1°F5.1°C 95% 2.3 mph SSE3.7 kmh SSE 2.3 mph3.7 kmh 29.84 in1010.5 mb - 0.00 in0.0 mm 1.01 in25.7 mm
07:55 AM 43.0°F6.1°C 41.6°F5.3°C 95% 2.3 mph ENE3.7 kmh ENE 4.6 mph7.4 kmh 29.82 in1009.8 mb - 0.00 in0.0 mm 1.01 in25.7 mm
08:00 AM 43.2°F6.2°C 41.8°F5.4°C 95% 4.6 mph E7.4 kmh E 9.2 mph14.8 kmh 29.82 in1009.8 mb - 0.01 in0.3 mm 1.02 in25.9 mm
08:10 AM 43.2°F6.2°C 41.8°F5.4°C 95% 5.8 mph ESE9.3 kmh ESE 3.5 mph5.6 kmh 29.82 in1009.8 mb - 0.01 in0.3 mm 1.02 in25.9 mm
08:15 AM 43.2°F6.2°C 41.8°F5.4°C 95% 5.8 mph ESE9.3 kmh ESE 6.9 mph11.1 kmh 29.82 in1009.8 mb - 0.00 in0.0 mm 1.02 in25.9 mm
08:20 AM 43.2°F6.2°C 41.8°F5.4°C 95% 5.8 mph ENE9.3 kmh ENE 5.8 mph9.3 kmh 29.82 in1009.8 mb - 0.00 in0.0 mm 1.02 in25.9 mm
08:25 AM 43.2°F6.2°C 41.8°F5.4°C 95% 2.3 mph NE3.7 kmh NE 3.5 mph5.6 kmh 29.82 in1009.8 mb - 0.00 in0.0 mm 1.02 in25.9 mm
08:30 AM 43.2°F6.2°C 41.8°F5.4°C 95% 3.5 mph E5.6 kmh E 3.5 mph5.6 kmh 29.82 in1009.8 mb - 0.00 in0.0 mm 1.02 in25.9 mm
08:35 AM 43.2°F6.2°C 41.8°F5.4°C 95% 3.5 mph ESE5.6 kmh ESE 3.5 mph5.6 kmh 29.82 in1009.8 mb - 0.00 in0.0 mm 1.02 in25.9 mm
08:40 AM 43.2°F6.2°C 41.8°F5.4°C 95% 3.5 mph NE5.6 kmh NE 3.5 mph5.6 kmh 29.82 in1009.8 mb - 0.00 in0.0 mm 1.02 in25.9 mm
08:45 AM 43.2°F6.2°C 41.8°F5.4°C 95% 3.5 mph NE5.6 kmh NE 3.5 mph5.6 kmh 29.82 in1009.8 mb - 0.00 in0.0 mm 1.02 in25.9 mm
08:50 AM 43.3°F6.3°C 41.9°F5.5°C 95% 3.5 mph ENE5.6 kmh ENE 3.5 mph5.6 kmh 29.82 in1009.8 mb - 0.00 in0.0 mm 1.02 in25.9 mm
08:55 AM 43.3°F6.3°C 42.0°F5.6°C 95% 2.3 mph NE3.7 kmh NE 3.5 mph5.6 kmh 29.82 in1009.8 mb - 0.00 in0.0 mm 1.02 in25.9 mm
09:00 AM 43.3°F6.3°C 42.0°F5.6°C 95% 2.3 mph NE3.7 kmh NE 3.5 mph5.6 kmh 29.82 in1009.8 mb - 0.00 in0.0 mm 1.02 in25.9 mm
09:10 AM 43.3°F6.3°C 42.0°F5.6°C 95% 3.5 mph NE5.6 kmh NE 3.5 mph5.6 kmh 29.82 in1009.8 mb - 0.00 in0.0 mm 1.02 in25.9 mm
09:15 AM 43.3°F6.3°C 42.0°F5.6°C 95% 3.5 mph NE5.6 kmh NE 2.3 mph3.7 kmh 29.82 in1009.8 mb - 0.00 in0.0 mm 1.02 in25.9 mm
09:20 AM 43.3°F6.3°C 42.0°F5.6°C 95% 3.5 mph NNE5.6 kmh NNE 3.5 mph5.6 kmh 29.81 in1009.5 mb - 0.00 in0.0 mm 1.02 in25.9 mm
09:25 AM 43.2°F6.2°C 41.8°F5.4°C 95% 2.3 mph ESE3.7 kmh ESE 2.3 mph3.7 kmh 29.82 in1009.8 mb - 0.00 in0.0 mm 1.02 in25.9 mm
09:30 AM 43.3°F6.3°C 42.0°F5.6°C 95% 1.2 mph ESE1.9 kmh ESE 2.3 mph3.7 kmh 29.81 in1009.5 mb - 0.00 in0.0 mm 1.02 in25.9 mm
09:35 AM 43.3°F6.3°C 42.0°F5.6°C 95% 3.5 mph E5.6 kmh E 4.6 mph7.4 kmh 29.80 in1009.1 mb - 0.00 in0.0 mm 1.02 in25.9 mm
09:40 AM 43.3°F6.3°C 42.0°F5.6°C 95% 3.5 mph E5.6 kmh E 4.6 mph7.4 kmh 29.80 in1009.1 mb - 0.00 in0.0 mm 1.02 in25.9 mm
09:45 AM 43.3°F6.3°C 42.0°F5.6°C 95% 3.5 mph NE5.6 kmh NE 2.3 mph3.7 kmh 29.80 in1009.1 mb - 0.00 in0.0 mm 1.02 in25.9 mm
09:50 AM 43.3°F6.3°C 42.0°F5.6°C 95% 2.3 mph E3.7 kmh E 2.3 mph3.7 kmh 29.80 in1009.1 mb - 0.00 in0.0 mm 1.02 in25.9 mm
09:55 AM 43.5°F6.4°C 42.2°F5.7°C 95% 2.3 mph E3.7 kmh E 1.2 mph1.9 kmh 29.80 in1009.1 mb - 0.00 in0.0 mm 1.02 in25.9 mm
10:00 AM 43.5°F6.4°C 42.2°F5.7°C 95% 2.3 mph E3.7 kmh E 2.3 mph3.7 kmh 29.80 in1009.1 mb - 0.00 in0.0 mm 1.02 in25.9 mm
10:10 AM 43.5°F6.4°C 42.2°F5.7°C 95% 2.3 mph NNE3.7 kmh NNE 3.5 mph5.6 kmh 29.80 in1009.1 mb - 0.00 in0.0 mm 1.02 in25.9 mm
10:15 AM 43.9°F6.6°C 42.5°F5.8°C 95% 1.2 mph NNE1.9 kmh NNE 1.2 mph1.9 kmh 29.80 in1009.1 mb - 0.00 in0.0 mm 1.02 in25.9 mm
10:20 AM 44.1°F6.7°C 42.7°F5.9°C 95% 1.2 mph ENE1.9 kmh ENE 2.3 mph3.7 kmh 29.80 in1009.1 mb - 0.00 in0.0 mm 1.02 in25.9 mm
10:25 AM 44.1°F6.7°C 42.7°F5.9°C 95% 1.2 mph NE1.9 kmh NE 3.5 mph5.6 kmh 29.80 in1009.1 mb - 0.00 in0.0 mm 1.02 in25.9 mm
10:30 AM 44.1°F6.7°C 42.7°F5.9°C 95% 2.3 mph NNE3.7 kmh NNE 1.2 mph1.9 kmh 29.80 in1009.1 mb - 0.00 in0.0 mm 1.02 in25.9 mm
10:35 AM 44.1°F6.7°C 42.7°F5.9°C 95% 2.3 mph NNE3.7 kmh NNE 2.3 mph3.7 kmh 29.80 in1009.1 mb - 0.00 in0.0 mm 1.02 in25.9 mm
10:40 AM 44.1°F6.7°C 42.7°F5.9°C 95% 2.3 mph NNE3.7 kmh NNE 2.3 mph3.7 kmh 29.79 in1008.8 mb - 0.00 in0.0 mm 1.02 in25.9 mm
10:45 AM 44.1°F6.7°C 42.7°F5.9°C 95% 2.3 mph NNE3.7 kmh NNE 2.3 mph3.7 kmh 29.79 in1008.8 mb - 0.00 in0.0 mm 1.02 in25.9 mm
10:50 AM 44.6°F7.0°C 43.3°F6.3°C 95% 2.3 mph ESE3.7 kmh ESE 3.5 mph5.6 kmh 29.78 in1008.5 mb - 0.01 in0.3 mm 1.03 in26.2 mm
10:55 AM 44.8°F7.1°C 43.4°F6.3°C 95% 2.3 mph E3.7 kmh E 3.5 mph5.6 kmh 29.77 in1008.1 mb - 0.00 in0.0 mm 1.03 in26.2 mm
11:00 AM 45.0°F7.2°C 43.6°F6.4°C 95% 3.5 mph ENE5.6 kmh ENE 3.5 mph5.6 kmh 29.77 in1008.1 mb - 0.00 in0.0 mm 1.03 in26.2 mm
11:10 AM 45.1°F7.3°C 43.8°F6.6°C 95% 1.2 mph NE1.9 kmh NE 2.3 mph3.7 kmh 29.77 in1008.1 mb - 0.00 in0.0 mm 1.03 in26.2 mm
11:15 AM 45.1°F7.3°C 43.8°F6.6°C 95% 1.2 mph NE1.9 kmh NE 2.3 mph3.7 kmh 29.77 in1008.1 mb - 0.00 in0.0 mm 1.03 in26.2 mm
11:20 AM 45.1°F7.3°C 43.8°F6.6°C 95% 1.2 mph E1.9 kmh E -- 29.77 in1008.1 mb - 0.00 in0.0 mm 1.03 in26.2 mm
11:25 AM 45.5°F7.5°C 44.2°F6.8°C 95% 1.2 mph ENE1.9 kmh ENE 2.3 mph3.7 kmh 29.76 in1007.8 mb - 0.00 in0.0 mm 1.03 in26.2 mm
11:30 AM 45.7°F7.6°C 44.3°F6.8°C 95% 1.2 mph NE1.9 kmh NE 1.2 mph1.9 kmh 29.77 in1008.1 mb - 0.00 in0.0 mm 1.03 in26.2 mm
11:35 AM 45.9°F7.7°C 44.5°F6.9°C 95% 1.2 mph ESE1.9 kmh ESE 1.2 mph1.9 kmh 29.78 in1008.5 mb - 0.00 in0.0 mm 1.03 in26.2 mm
11:40 AM 45.9°F7.7°C 44.5°F6.9°C 95% 2.3 mph NE3.7 kmh NE 2.3 mph3.7 kmh 29.78 in1008.5 mb - 0.00 in0.0 mm 1.03 in26.2 mm
11:45 AM 46.0°F7.8°C 44.7°F7.1°C 95% 1.2 mph ENE1.9 kmh ENE 2.3 mph3.7 kmh 29.77 in1008.1 mb - 0.00 in0.0 mm 1.03 in26.2 mm
11:50 AM 46.0°F7.8°C 44.7°F7.1°C 95% 1.2 mph NNE1.9 kmh NNE 2.3 mph3.7 kmh 29.76 in1007.8 mb - 0.00 in0.0 mm 1.03 in26.2 mm
11:55 AM 46.0°F7.8°C 44.1°F6.7°C 93% Calm Calm -- 29.76 in1007.8 mb - 0.00 in0.0 mm 1.03 in26.2 mm
12:00 PM 46.5°F8.1°C 44.6°F7.0°C 93% Calm Calm -- 29.77 in1008.1 mb - 0.00 in0.0 mm 1.03 in26.2 mm
12:10 PM 46.0°F7.8°C 44.1°F6.7°C 93% 1.2 mph NW1.9 kmh NW 1.2 mph1.9 kmh 29.77 in1008.1 mb - 0.01 in0.3 mm 1.04 in26.4 mm
12:15 PM 46.0°F7.8°C 44.1°F6.7°C 93% 1.2 mph NW1.9 kmh NW 2.3 mph3.7 kmh 29.78 in1008.5 mb - 0.00 in0.0 mm 1.04 in26.4 mm
12:20 PM 46.0°F7.8°C 44.1°F6.7°C 93% 2.3 mph WNW3.7 kmh WNW 2.3 mph3.7 kmh 29.78 in1008.5 mb - 0.00 in0.0 mm 1.04 in26.4 mm
12:25 PM 46.5°F8.1°C 44.6°F7.0°C 93% 1.2 mph NW1.9 kmh NW 1.2 mph1.9 kmh 29.77 in1008.1 mb - 0.00 in0.0 mm 1.04 in26.4 mm
12:30 PM 46.6°F8.1°C 44.7°F7.1°C 93% 1.2 mph NW1.9 kmh NW 2.3 mph3.7 kmh 29.76 in1007.8 mb - 0.00 in0.0 mm 1.04 in26.4 mm
12:35 PM 46.6°F8.1°C 44.7°F7.1°C 93% 2.3 mph N3.7 kmh N 3.5 mph5.6 kmh 29.76 in1007.8 mb - 0.00 in0.0 mm 1.04 in26.4 mm
12:40 PM 46.6°F8.1°C 44.7°F7.1°C 93% 2.3 mph NW3.7 kmh NW 3.5 mph5.6 kmh 29.76 in1007.8 mb - 0.00 in0.0 mm 1.04 in26.4 mm
12:45 PM 46.6°F8.1°C 44.7°F7.1°C 93% 2.3 mph W3.7 kmh W 3.5 mph5.6 kmh 29.76 in1007.8 mb - 0.00 in0.0 mm 1.04 in26.4 mm
12:50 PM 46.4°F8.0°C 44.5°F6.9°C 93% 2.3 mph W3.7 kmh W 3.5 mph5.6 kmh 29.76 in1007.8 mb - 0.00 in0.0 mm 1.04 in26.4 mm
12:55 PM 46.6°F8.1°C 45.2°F7.3°C 95% 2.3 mph NW3.7 kmh NW 3.5 mph5.6 kmh 29.75 in1007.5 mb - 0.00 in0.0 mm 1.04 in26.4 mm
01:00 PM 46.6°F8.1°C 45.2°F7.3°C 95% 2.3 mph W3.7 kmh W 3.5 mph5.6 kmh 29.76 in1007.8 mb - 0.00 in0.0 mm 1.04 in26.4 mm
01:10 PM 46.6°F8.1°C 45.2°F7.3°C 95% 2.3 mph WNW3.7 kmh WNW 5.8 mph9.3 kmh 29.75 in1007.5 mb - 0.00 in0.0 mm 1.04 in26.4 mm
01:15 PM 46.6°F8.1°C 45.2°F7.3°C 95% 4.6 mph NW7.4 kmh NW 4.6 mph7.4 kmh 29.76 in1007.8 mb - 0.00 in0.0 mm 1.04 in26.4 mm
01:20 PM 46.0°F7.8°C 44.7°F7.1°C 95% 3.5 mph N5.6 kmh N 4.6 mph7.4 kmh 29.75 in1007.5 mb - 0.00 in0.0 mm 1.04 in26.4 mm
01:25 PM 45.9°F7.7°C 44.5°F6.9°C 95% 2.3 mph NNE3.7 kmh NNE 2.3 mph3.7 kmh 29.76 in1007.8 mb - 0.00 in0.0 mm 1.04 in26.4 mm
01:30 PM 45.9°F7.7°C 44.5°F6.9°C 95% 3.5 mph NW5.6 kmh NW 4.6 mph7.4 kmh 29.75 in1007.5 mb - 0.00 in0.0 mm 1.04 in26.4 mm
01:35 PM 45.9°F7.7°C 44.5°F6.9°C 95% 3.5 mph NW5.6 kmh NW 3.5 mph5.6 kmh 29.75 in1007.5 mb - 0.00 in0.0 mm 1.04 in26.4 mm
01:40 PM 45.9°F7.7°C 44.5°F6.9°C 95% 3.5 mph NW5.6 kmh NW 5.8 mph9.3 kmh 29.75 in1007.5 mb - 0.00 in0.0 mm 1.04 in26.4 mm
01:45 PM 45.1°F7.3°C 43.8°F6.6°C 95% 4.6 mph NNW7.4 kmh NNW 3.5 mph5.6 kmh 29.75 in1007.5 mb - 0.00 in0.0 mm 1.04 in26.4 mm
01:50 PM 45.9°F7.7°C 44.5°F6.9°C 95% 3.5 mph WNW5.6 kmh WNW 3.5 mph5.6 kmh 29.75 in1007.5 mb - 0.00 in0.0 mm 1.04 in26.4 mm
01:55 PM 45.9°F7.7°C 44.5°F6.9°C 95% 3.5 mph WSW5.6 kmh WSW 3.5 mph5.6 kmh 29.75 in1007.5 mb - 0.00 in0.0 mm 1.04 in26.4 mm
02:00 PM 45.1°F7.3°C 43.8°F6.6°C 95% 3.5 mph NNW5.6 kmh NNW 3.5 mph5.6 kmh 29.75 in1007.5 mb - 0.00 in0.0 mm 1.04 in26.4 mm
02:10 PM 45.0°F7.2°C 43.6°F6.4°C 95% 4.6 mph WNW7.4 kmh WNW 4.6 mph7.4 kmh 29.74 in1007.1 mb - 0.00 in0.0 mm 1.04 in26.4 mm
02:15 PM 45.1°F7.3°C 43.8°F6.6°C 95% 5.8 mph WNW9.3 kmh WNW 6.9 mph11.1 kmh 29.75 in1007.5 mb - 0.00 in0.0 mm 1.04 in26.4 mm
02:20 PM 45.2°F7.3°C 43.9°F6.6°C 95% 4.6 mph W7.4 kmh W 4.6 mph7.4 kmh 29.75 in1007.5 mb - 0.00 in0.0 mm 1.04 in26.4 mm
02:25 PM 45.5°F7.5°C 44.2°F6.8°C 95% 2.3 mph NNE3.7 kmh NNE 2.3 mph3.7 kmh 29.75 in1007.5 mb - 0.00 in0.0 mm 1.04 in26.4 mm
02:30 PM 45.5°F7.5°C 44.2°F6.8°C 95% 2.3 mph NNW3.7 kmh NNW 2.3 mph3.7 kmh 29.75 in1007.5 mb - 0.00 in0.0 mm 1.04 in26.4 mm
02:35 PM 45.7°F7.6°C 43.8°F6.6°C 93% 3.5 mph WNW5.6 kmh WNW 2.3 mph3.7 kmh 29.76 in1007.8 mb - 0.00 in0.0 mm 1.04 in26.4 mm
02:40 PM 45.7°F7.6°C 43.8°F6.6°C 93% 2.3 mph W3.7 kmh W 2.3 mph3.7 kmh 29.76 in1007.8 mb - 0.00 in0.0 mm 1.04 in26.4 mm
02:45 PM 45.9°F7.7°C 44.0°F6.7°C 93% 2.3 mph WSW3.7 kmh WSW 2.3 mph3.7 kmh 29.76 in1007.8 mb - 0.00 in0.0 mm 1.04 in26.4 mm
02:50 PM 45.9°F7.7°C 44.0°F6.7°C 93% 3.5 mph NW5.6 kmh NW 3.5 mph5.6 kmh 29.76 in1007.8 mb - 0.00 in0.0 mm 1.04 in26.4 mm
02:55 PM 45.9°F7.7°C 44.0°F6.7°C 93% 2.3 mph WSW3.7 kmh WSW 2.3 mph3.7 kmh 29.76 in1007.8 mb - 0.00 in0.0 mm 1.04 in26.4 mm
03:00 PM 45.9°F7.7°C 44.0°F6.7°C 93% 3.5 mph NW5.6 kmh NW 3.5 mph5.6 kmh 29.75 in1007.5 mb - 0.00 in0.0 mm 1.04 in26.4 mm
03:10 PM 46.4°F8.0°C 44.5°F6.9°C 93% 3.5 mph W5.6 kmh W 3.5 mph5.6 kmh 29.75 in1007.5 mb - 0.00 in0.0 mm 1.04 in26.4 mm
03:15 PM 46.4°F8.0°C 43.9°F6.6°C 91% 3.5 mph SSE5.6 kmh SSE 1.2 mph1.9 kmh 29.77 in1008.1 mb - 0.00 in0.0 mm 1.04 in26.4 mm
03:20 PM 46.4°F8.0°C 43.9°F6.6°C 91% 3.5 mph W5.6 kmh W 3.5 mph5.6 kmh 29.76 in1007.8 mb - 0.00 in0.0 mm 1.04 in26.4 mm
03:25 PM 46.0°F7.8°C 43.6°F6.4°C 91% 3.5 mph WSW5.6 kmh WSW 5.8 mph9.3 kmh 29.76 in1007.8 mb - 0.00 in0.0 mm 1.04 in26.4 mm
03:30 PM 46.0°F7.8°C 43.6°F6.4°C 91% 4.6 mph WSW7.4 kmh WSW 9.2 mph14.8 kmh 29.75 in1007.5 mb - 0.00 in0.0 mm 1.04 in26.4 mm
03:35 PM 46.0°F7.8°C 43.6°F6.4°C 91% 5.8 mph WSW9.3 kmh WSW 3.5 mph5.6 kmh 29.75 in1007.5 mb - 0.00 in0.0 mm 1.04 in26.4 mm
03:40 PM 46.0°F7.8°C 43.6°F6.4°C 91% 4.6 mph WSW7.4 kmh WSW 4.6 mph7.4 kmh 29.75 in1007.5 mb - 0.00 in0.0 mm 1.04 in26.4 mm
03:45 PM 46.0°F7.8°C 43.6°F6.4°C 91% 4.6 mph W7.4 kmh W 4.6 mph7.4 kmh 29.76 in1007.8 mb - 0.00 in0.0 mm 1.04 in26.4 mm
03:50 PM 46.0°F7.8°C 43.6°F6.4°C 91% 4.6 mph W7.4 kmh W 4.6 mph7.4 kmh 29.75 in1007.5 mb - 0.00 in0.0 mm 1.04 in26.4 mm
03:55 PM 46.6°F8.1°C 44.1°F6.7°C 91% 4.6 mph WSW7.4 kmh WSW 4.6 mph7.4 kmh 29.77 in1008.1 mb - 0.00 in0.0 mm 1.04 in26.4 mm
04:00 PM 46.6°F8.1°C 44.1°F6.7°C 91% 4.6 mph SW7.4 kmh SW 6.9 mph11.1 kmh 29.76 in1007.8 mb - 0.00 in0.0 mm 1.04 in26.4 mm
04:10 PM 46.6°F8.1°C 44.1°F6.7°C 91% 5.8 mph WNW9.3 kmh WNW 5.8 mph9.3 kmh 29.77 in1008.1 mb - 0.00 in0.0 mm 1.04 in26.4 mm
04:15 PM 46.6°F8.1°C 44.1°F6.7°C 91% 5.8 mph W9.3 kmh W 9.2 mph14.8 kmh 29.77 in1008.1 mb - 0.00 in0.0 mm 1.04 in26.4 mm
04:20 PM 46.8°F8.2°C 44.3°F6.8°C 91% 4.6 mph W7.4 kmh W 5.8 mph9.3 kmh 29.76 in1007.8 mb - 0.00 in0.0 mm 1.04 in26.4 mm
04:25 PM 46.8°F8.2°C 44.0°F6.7°C 90% 5.8 mph W9.3 kmh W 5.8 mph9.3 kmh 29.77 in1008.1 mb - 0.00 in0.0 mm 1.04 in26.4 mm
04:30 PM 46.8°F8.2°C 44.0°F6.7°C 90% 4.6 mph WSW7.4 kmh WSW 5.8 mph9.3 kmh 29.77 in1008.1 mb - 0.00 in0.0 mm 1.04 in26.4 mm
04:35 PM 46.8°F8.2°C 44.0°F6.7°C 90% 5.8 mph W9.3 kmh W 6.9 mph11.1 kmh 29.77 in1008.1 mb - 0.00 in0.0 mm 1.04 in26.4 mm
04:40 PM 46.8°F8.2°C 44.0°F6.7°C 90% 4.6 mph W7.4 kmh W 3.5 mph5.6 kmh 29.78 in1008.5 mb - 0.00 in0.0 mm 1.04 in26.4 mm
04:45 PM 46.8°F8.2°C 44.3°F6.8°C 91% 3.5 mph W5.6 kmh W 8.1 mph13.0 kmh 29.77 in1008.1 mb - 0.00 in0.0 mm 1.04 in26.4 mm
04:50 PM 46.8°F8.2°C 44.3°F6.8°C 91% 4.6 mph W7.4 kmh W 5.8 mph9.3 kmh 29.77 in1008.1 mb - 0.00 in0.0 mm 1.04 in26.4 mm
04:55 PM 46.8°F8.2°C 44.3°F6.8°C 91% 3.5 mph W5.6 kmh W 2.3 mph3.7 kmh 29.78 in1008.5 mb - 0.00 in0.0 mm 1.04 in26.4 mm
05:00 PM 46.8°F8.2°C 44.3°F6.8°C 91% 2.3 mph WSW3.7 kmh WSW 2.3 mph3.7 kmh 29.77 in1008.1 mb - 0.00 in0.0 mm 1.04 in26.4 mm
05:10 PM 46.0°F7.8°C 43.6°F6.4°C 91% 4.6 mph WNW7.4 kmh WNW 3.5 mph5.6 kmh 29.79 in1008.8 mb - 0.00 in0.0 mm 1.04 in26.4 mm
05:15 PM 46.0°F7.8°C 43.6°F6.4°C 91% 3.5 mph W5.6 kmh W 2.3 mph3.7 kmh 29.78 in1008.5 mb - 0.00 in0.0 mm 1.04 in26.4 mm
05:20 PM 46.0°F7.8°C 43.6°F6.4°C 91% 4.6 mph W7.4 kmh W 4.6 mph7.4 kmh 29.78 in1008.5 mb - 0.00 in0.0 mm 1.04 in26.4 mm
05:25 PM 46.0°F7.8°C 43.6°F6.4°C 91% 3.5 mph WSW5.6 kmh WSW 4.6 mph7.4 kmh 29.78 in1008.5 mb - 0.00 in0.0 mm 1.04 in26.4 mm
05:30 PM 45.9°F7.7°C 43.4°F6.3°C 91% 4.6 mph WSW7.4 kmh WSW 4.6 mph7.4 kmh 29.78 in1008.5 mb - 0.00 in0.0 mm 1.04 in26.4 mm
05:35 PM 45.9°F7.7°C 44.0°F6.7°C 93% 3.5 mph WSW5.6 kmh WSW 3.5 mph5.6 kmh 29.79 in1008.8 mb - 0.00 in0.0 mm 1.04 in26.4 mm
05:40 PM 45.9°F7.7°C 44.0°F6.7°C 93% 3.5 mph W5.6 kmh W 4.6 mph7.4 kmh 29.78 in1008.5 mb - 0.00 in0.0 mm 1.04 in26.4 mm
05:45 PM 45.9°F7.7°C 44.0°F6.7°C 93% 3.5 mph WNW5.6 kmh WNW 4.6 mph7.4 kmh 29.79 in1008.8 mb - 0.00 in0.0 mm 1.04 in26.4 mm
05:50 PM 45.9°F7.7°C 44.0°F6.7°C 93% 4.6 mph W7.4 kmh W 5.8 mph9.3 kmh 29.79 in1008.8 mb - 0.00 in0.0 mm 1.04 in26.4 mm
05:55 PM 45.9°F7.7°C 44.0°F6.7°C 93% 4.6 mph W7.4 kmh W 6.9 mph11.1 kmh 29.79 in1008.8 mb - 0.00 in0.0 mm 1.04 in26.4 mm
06:00 PM 45.9°F7.7°C 44.0°F6.7°C 93% 4.6 mph W7.4 kmh W 2.3 mph3.7 kmh 29.79 in1008.8 mb - 0.00 in0.0 mm 1.04 in26.4 mm
06:10 PM 45.9°F7.7°C 44.0°F6.7°C 93% 3.5 mph W5.6 kmh W 3.5 mph5.6 kmh 29.79 in1008.8 mb - 0.00 in0.0 mm 1.04 in26.4 mm
06:15 PM 45.9°F7.7°C 44.0°F6.7°C 93% 3.5 mph WNW5.6 kmh WNW 3.5 mph5.6 kmh 29.79 in1008.8 mb - 0.00 in0.0 mm 1.04 in26.4 mm
06:20 PM 45.9°F7.7°C 44.0°F6.7°C 93% 3.5 mph W5.6 kmh W 2.3 mph3.7 kmh 29.79 in1008.8 mb - 0.00 in0.0 mm 1.04 in26.4 mm
06:25 PM 45.9°F7.7°C 44.0°F6.7°C 93% 1.2 mph W1.9 kmh W 2.3 mph3.7 kmh 29.79 in1008.8 mb - 0.00 in0.0 mm 1.04 in26.4 mm
06:30 PM 45.9°F7.7°C 44.0°F6.7°C 93% 2.3 mph WNW3.7 kmh WNW 3.5 mph5.6 kmh 29.79 in1008.8 mb - 0.00 in0.0 mm 1.04 in26.4 mm
06:35 PM 45.9°F7.7°C 44.0°F6.7°C 93% 2.3 mph WNW3.7 kmh WNW 2.3 mph3.7 kmh 29.79 in1008.8 mb - 0.00 in0.0 mm 1.04 in26.4 mm
06:40 PM 45.9°F7.7°C 44.0°F6.7°C 93% 2.3 mph NW3.7 kmh NW 3.5 mph5.6 kmh 29.79 in1008.8 mb - 0.00 in0.0 mm 1.04 in26.4 mm
06:45 PM 45.9°F7.7°C 44.0°F6.7°C 93% 2.3 mph NW3.7 kmh NW 3.5 mph5.6 kmh 29.79 in1008.8 mb - 0.00 in0.0 mm 1.04 in26.4 mm
06:50 PM 45.9°F7.7°C 44.0°F6.7°C 93% 2.3 mph W3.7 kmh W 3.5 mph5.6 kmh 29.79 in1008.8 mb - 0.00 in0.0 mm 1.04 in26.4 mm
06:55 PM 45.9°F7.7°C 44.0°F6.7°C 93% 1.2 mph W1.9 kmh W 3.5 mph5.6 kmh 29.79 in1008.8 mb - 0.00 in0.0 mm 1.04 in26.4 mm
07:00 PM 45.9°F7.7°C 44.0°F6.7°C 93% 2.3 mph NW3.7 kmh NW 3.5 mph5.6 kmh 29.79 in1008.8 mb - 0.00 in0.0 mm 1.04 in26.4 mm
07:10 PM 45.9°F7.7°C 44.0°F6.7°C 93% 2.3 mph WNW3.7 kmh WNW 2.3 mph3.7 kmh 29.79 in1008.8 mb - 0.00 in0.0 mm 1.04 in26.4 mm
07:15 PM 45.9°F7.7°C 44.0°F6.7°C 93% 2.3 mph WNW3.7 kmh WNW 2.3 mph3.7 kmh 29.79 in1008.8 mb - 0.00 in0.0 mm 1.04 in26.4 mm
07:20 PM 45.9°F7.7°C 44.0°F6.7°C 93% 1.2 mph W1.9 kmh W 3.5 mph5.6 kmh 29.79 in1008.8 mb - 0.00 in0.0 mm 1.04 in26.4 mm
07:25 PM 45.9°F7.7°C 44.0°F6.7°C 93% 1.2 mph WSW1.9 kmh WSW 2.3 mph3.7 kmh 29.79 in1008.8 mb - 0.00 in0.0 mm 1.04 in26.4 mm
07:30 PM 45.9°F7.7°C 44.0°F6.7°C 93% 2.3 mph W3.7 kmh W 3.5 mph5.6 kmh 29.80 in1009.1 mb - 0.00 in0.0 mm 1.04 in26.4 mm
07:35 PM 45.7°F7.6°C 43.8°F6.6°C 93% 2.3 mph W3.7 kmh W 1.2 mph1.9 kmh 29.79 in1008.8 mb - 0.00 in0.0 mm 1.04 in26.4 mm
07:40 PM 45.7°F7.6°C 43.8°F6.6°C 93% 2.3 mph NNW3.7 kmh NNW 2.3 mph3.7 kmh 29.80 in1009.1 mb - 0.00 in0.0 mm 1.04 in26.4 mm
07:45 PM 45.7°F7.6°C 43.8°F6.6°C 93% 1.2 mph W1.9 kmh W 1.2 mph1.9 kmh 29.80 in1009.1 mb - 0.00 in0.0 mm 1.04 in26.4 mm
07:50 PM 45.7°F7.6°C 43.8°F6.6°C 93% Calm Calm -- 29.79 in1008.8 mb - 0.00 in0.0 mm 1.04 in26.4 mm
07:55 PM 45.7°F7.6°C 43.8°F6.6°C 93% Calm Calm -- 29.80 in1009.1 mb - 0.00 in0.0 mm 1.04 in26.4 mm
08:00 PM 45.7°F7.6°C 43.8°F6.6°C 93% Calm Calm -- 29.80 in1009.1 mb - 0.00 in0.0 mm 1.04 in26.4 mm
08:10 PM 45.7°F7.6°C 43.8°F6.6°C 93% Calm Calm -- 29.80 in1009.1 mb - 0.00 in0.0 mm 1.04 in26.4 mm
08:15 PM 45.7°F7.6°C 43.8°F6.6°C 93% Calm Calm -- 29.80 in1009.1 mb - 0.00 in0.0 mm 1.04 in26.4 mm
08:20 PM 45.7°F7.6°C 43.8°F6.6°C 93% Calm Calm -- 29.80 in1009.1 mb - 0.00 in0.0 mm 1.04 in26.4 mm
08:25 PM 45.7°F7.6°C 44.3°F6.8°C 95% Calm Calm -- 29.81 in1009.5 mb - 0.00 in0.0 mm 1.04 in26.4 mm
08:30 PM 45.7°F7.6°C 44.3°F6.8°C 95% Calm Calm -- 29.81 in1009.5 mb - 0.00 in0.0 mm 1.04 in26.4 mm
08:35 PM 45.7°F7.6°C 44.3°F6.8°C 95% Calm Calm 1.2 mph1.9 kmh 29.81 in1009.5 mb - 0.01 in0.3 mm 1.05 in26.7 mm
08:40 PM 45.7°F7.6°C 44.3°F6.8°C 95% Calm Calm -- 29.81 in1009.5 mb - 0.00 in0.0 mm 1.05 in26.7 mm
08:45 PM 45.7°F7.6°C 44.3°F6.8°C 95% Calm Calm -- 29.81 in1009.5 mb - 0.00 in0.0 mm 1.05 in26.7 mm
08:50 PM 45.7°F7.6°C 44.3°F6.8°C 95% Calm Calm -- 29.81 in1009.5 mb - 0.00 in0.0 mm 1.05 in26.7 mm
08:55 PM 45.7°F7.6°C 44.3°F6.8°C 95% Calm Calm -- 29.81 in1009.5 mb - 0.00 in0.0 mm 1.05 in26.7 mm
09:00 PM 45.7°F7.6°C 44.3°F6.8°C 95% 1.2 mph WSW1.9 kmh WSW 2.3 mph3.7 kmh 29.82 in1009.8 mb - 0.00 in0.0 mm 1.05 in26.7 mm
09:10 PM 45.9°F7.7°C 44.5°F6.9°C 95% 3.5 mph WNW5.6 kmh WNW 2.3 mph3.7 kmh 29.81 in1009.5 mb - 0.00 in0.0 mm 1.05 in26.7 mm
09:15 PM 45.9°F7.7°C 44.5°F6.9°C 95% 3.5 mph WSW5.6 kmh WSW 3.5 mph5.6 kmh 29.82 in1009.8 mb - 0.00 in0.0 mm 1.05 in26.7 mm
09:20 PM 45.9°F7.7°C 44.5°F6.9°C 95% 2.3 mph WSW3.7 kmh WSW 3.5 mph5.6 kmh 29.82 in1009.8 mb - 0.00 in0.0 mm 1.05 in26.7 mm
09:25 PM 45.9°F7.7°C 44.5°F6.9°C 95% 3.5 mph WSW5.6 kmh WSW 5.8 mph9.3 kmh 29.81 in1009.5 mb - 0.00 in0.0 mm 1.05 in26.7 mm
09:30 PM 45.9°F7.7°C 44.5°F6.9°C 95% 5.8 mph WSW9.3 kmh WSW 9.2 mph14.8 kmh 29.82 in1009.8 mb - 0.00 in0.0 mm 1.05 in26.7 mm
09:35 PM 46.0°F7.8°C 44.7°F7.1°C 95% 6.9 mph WSW11.1 kmh WSW 4.6 mph7.4 kmh 29.82 in1009.8 mb - 0.00 in0.0 mm 1.05 in26.7 mm
09:40 PM 46.0°F7.8°C 44.7°F7.1°C 95% 5.8 mph W9.3 kmh W 6.9 mph11.1 kmh 29.82 in1009.8 mb - 0.00 in0.0 mm 1.05 in26.7 mm
09:45 PM 46.0°F7.8°C 44.1°F6.7°C 93% 5.8 mph WSW9.3 kmh WSW 8.1 mph13.0 kmh 29.82 in1009.8 mb - 0.00 in0.0 mm 1.05 in26.7 mm
09:50 PM 46.4°F8.0°C 44.5°F6.9°C 93% 6.9 mph WSW11.1 kmh WSW 8.1 mph13.0 kmh 29.82 in1009.8 mb - 0.00 in0.0 mm 1.05 in26.7 mm
09:55 PM 46.5°F8.1°C 44.0°F6.7°C 91% 6.9 mph WSW11.1 kmh WSW 8.1 mph13.0 kmh 29.82 in1009.8 mb - 0.00 in0.0 mm 1.05 in26.7 mm
10:00 PM 46.6°F8.1°C 44.1°F6.7°C 91% 5.8 mph W9.3 kmh W 11.5 mph18.5 kmh 29.82 in1009.8 mb - 0.00 in0.0 mm 1.05 in26.7 mm
10:10 PM 46.6°F8.1°C 44.1°F6.7°C 91% 5.8 mph WSW9.3 kmh WSW 5.8 mph9.3 kmh 29.82 in1009.8 mb - 0.00 in0.0 mm 1.05 in26.7 mm
10:15 PM 46.6°F8.1°C 44.1°F6.7°C 91% 5.8 mph W9.3 kmh W 9.2 mph14.8 kmh 29.82 in1009.8 mb - 0.00 in0.0 mm 1.05 in26.7 mm
10:20 PM 46.6°F8.1°C 44.1°F6.7°C 91% 5.8 mph SW9.3 kmh SW 5.8 mph9.3 kmh 29.82 in1009.8 mb - 0.00 in0.0 mm 1.05 in26.7 mm
10:25 PM 46.6°F8.1°C 44.1°F6.7°C 91% 5.8 mph WSW9.3 kmh WSW 6.9 mph11.1 kmh 29.82 in1009.8 mb - 0.00 in0.0 mm 1.05 in26.7 mm
10:30 PM 46.6°F8.1°C 44.1°F6.7°C 91% 4.6 mph WSW7.4 kmh WSW 8.1 mph13.0 kmh 29.83 in1010.2 mb - 0.00 in0.0 mm 1.05 in26.7 mm
10:35 PM 46.4°F8.0°C 43.9°F6.6°C 91% 6.9 mph WSW11.1 kmh WSW 11.5 mph18.5 kmh 29.83 in1010.2 mb - 0.00 in0.0 mm 1.05 in26.7 mm
10:40 PM 46.4°F8.0°C 43.9°F6.6°C 91% 5.8 mph WSW9.3 kmh WSW 9.2 mph14.8 kmh 29.83 in1010.2 mb - 0.00 in0.0 mm 1.05 in26.7 mm
10:45 PM 46.0°F7.8°C 43.6°F6.4°C 91% 5.8 mph W9.3 kmh W 4.6 mph7.4 kmh 29.83 in1010.2 mb - 0.00 in0.0 mm 1.05 in26.7 mm
10:50 PM 46.0°F7.8°C 43.3°F6.3°C 90% 5.8 mph WSW9.3 kmh WSW 6.9 mph11.1 kmh 29.83 in1010.2 mb - 0.00 in0.0 mm 1.05 in26.7 mm
10:55 PM 45.9°F7.7°C 43.1°F6.2°C 90% 5.8 mph WSW9.3 kmh WSW 10.4 mph16.7 kmh 29.83 in1010.2 mb - 0.00 in0.0 mm 1.05 in26.7 mm
11:00 PM 45.9°F7.7°C 43.1°F6.2°C 90% 5.8 mph WSW9.3 kmh WSW 9.2 mph14.8 kmh 29.84 in1010.5 mb - 0.00 in0.0 mm 1.05 in26.7 mm
11:10 PM 45.8°F7.7°C 42.5°F5.8°C 88% 6.9 mph W11.1 kmh W 9.2 mph14.8 kmh 29.84 in1010.5 mb - 0.00 in0.0 mm 1.05 in26.7 mm
11:15 PM 45.7°F7.6°C 42.3°F5.7°C 88% 5.8 mph W9.3 kmh W 15.0 mph24.1 kmh 29.83 in1010.2 mb - 0.00 in0.0 mm 1.05 in26.7 mm
11:20 PM 45.5°F7.5°C 42.2°F5.7°C 88% 6.9 mph WSW11.1 kmh WSW 6.9 mph11.1 kmh 29.83 in1010.2 mb - 0.00 in0.0 mm 1.05 in26.7 mm
11:25 PM 45.1°F7.3°C 41.8°F5.4°C 88% 5.8 mph W9.3 kmh W 6.9 mph11.1 kmh 29.83 in1010.2 mb - 0.00 in0.0 mm 1.05 in26.7 mm
11:30 PM 45.0°F7.2°C 41.6°F5.3°C 88% 5.8 mph W9.3 kmh W 6.9 mph11.1 kmh 29.83 in1010.2 mb - 0.00 in0.0 mm 1.05 in26.7 mm
11:35 PM 45.0°F7.2°C 41.6°F5.3°C 88% 8.1 mph W13.0 kmh W 12.7 mph20.4 kmh 29.84 in1010.5 mb - 0.00 in0.0 mm 1.05 in26.7 mm
11:40 PM 44.9°F7.2°C 41.3°F5.2°C 87% 10.4 mph WNW16.7 kmh WNW 16.1 mph25.9 kmh 29.83 in1010.2 mb - 0.00 in0.0 mm 1.05 in26.7 mm
11:45 PM 44.8°F7.1°C 40.8°F4.9°C 86% 9.2 mph WNW14.8 kmh WNW 12.7 mph20.4 kmh 29.85 in1010.8 mb - 0.01 in0.3 mm 1.06 in26.9 mm
11:50 PM 44.6°F7.0°C 40.7°F4.8°C 86% 9.2 mph W14.8 kmh W 12.7 mph20.4 kmh 29.85 in1010.8 mb - 0.00 in0.0 mm 1.06 in26.9 mm
11:55 PM 44.4°F6.9°C 40.5°F4.7°C 86% 8.1 mph W13.0 kmh W 11.5 mph18.5 kmh 29.84 in1010.5 mb - 0.00 in0.0 mm 1.06 in26.9 mm